sensor_id;sensor_type;location;lat;lon;timestamp;P1;durP1;ratioP1;P2;durP2;ratioP2
75216;SDS011;63800;51.972;5.682;2023-08-06T00:01:48;5.18;;;4.35;;
75216;SDS011;63800;51.972;5.682;2023-08-06T00:04:13;9.05;;;4.55;;
75216;SDS011;63800;51.972;5.682;2023-08-06T00:06:39;8.00;;;4.47;;
75216;SDS011;63800;51.972;5.682;2023-08-06T00:09:05;5.22;;;4.05;;
75216;SDS011;63800;51.972;5.682;2023-08-06T00:11:30;6.22;;;4.18;;
75216;SDS011;63800;51.972;5.682;2023-08-06T00:13:55;6.05;;;4.90;;
75216;SDS011;63800;51.972;5.682;2023-08-06T00:16:21;5.68;;;4.60;;
75216;SDS011;63800;51.972;5.682;2023-08-06T00:18:46;5.45;;;4.55;;
75216;SDS011;63800;51.972;5.682;2023-08-06T00:21:12;8.38;;;4.90;;
75216;SDS011;63800;51.972;5.682;2023-08-06T00:23:38;8.15;;;5.07;;
75216;SDS011;63800;51.972;5.682;2023-08-06T00:26:04;5.32;;;4.38;;
75216;SDS011;63800;51.972;5.682;2023-08-06T00:28:29;6.10;;;4.10;;
75216;SDS011;63800;51.972;5.682;2023-08-06T00:30:55;6.10;;;4.25;;
75216;SDS011;63800;51.972;5.682;2023-08-06T00:33:24;5.35;;;4.53;;
75216;SDS011;63800;51.972;5.682;2023-08-06T00:35:50;6.55;;;4.95;;
75216;SDS011;63800;51.972;5.682;2023-08-06T00:38:15;6.57;;;4.80;;
75216;SDS011;63800;51.972;5.682;2023-08-06T00:40:41;5.85;;;4.47;;
75216;SDS011;63800;51.972;5.682;2023-08-06T00:43:07;6.53;;;4.45;;
75216;SDS011;63800;51.972;5.682;2023-08-06T00:45:36;5.18;;;4.40;;
75216;SDS011;63800;51.972;5.682;2023-08-06T00:48:02;6.38;;;4.80;;
75216;SDS011;63800;51.972;5.682;2023-08-06T00:50:29;6.63;;;4.65;;
75216;SDS011;63800;51.972;5.682;2023-08-06T00:52:55;5.80;;;4.93;;
75216;SDS011;63800;51.972;5.682;2023-08-06T00:55:21;6.40;;;5.10;;
75216;SDS011;63800;51.972;5.682;2023-08-06T00:57:47;7.03;;;5.07;;
75216;SDS011;63800;51.972;5.682;2023-08-06T01:00:12;6.75;;;5.00;;
75216;SDS011;63800;51.972;5.682;2023-08-06T01:02:38;6.55;;;5.22;;
75216;SDS011;63800;51.972;5.682;2023-08-06T01:05:04;6.50;;;5.00;;
75216;SDS011;63800;51.972;5.682;2023-08-06T01:12:56;7.20;;;5.10;;
75216;SDS011;63800;51.972;5.682;2023-08-06T01:15:28;7.00;;;4.88;;
75216;SDS011;63800;51.972;5.682;2023-08-06T01:17:57;7.30;;;5.22;;
75216;SDS011;63800;51.972;5.682;2023-08-06T01:20:27;6.55;;;5.47;;
75216;SDS011;63800;51.972;5.682;2023-08-06T01:22:53;6.75;;;5.15;;
75216;SDS011;63800;51.972;5.682;2023-08-06T01:25:19;9.85;;;6.45;;
75216;SDS011;63800;51.972;5.682;2023-08-06T01:27:46;8.20;;;6.15;;
75216;SDS011;63800;51.972;5.682;2023-08-06T01:30:17;6.65;;;5.47;;
75216;SDS011;63800;51.972;5.682;2023-08-06T01:32:50;9.38;;;6.93;;
75216;SDS011;63800;51.972;5.682;2023-08-06T01:35:22;12.23;;;7.60;;
75216;SDS011;63800;51.972;5.682;2023-08-06T01:37:48;11.73;;;7.28;;
75216;SDS011;63800;51.972;5.682;2023-08-06T01:40:13;9.90;;;7.32;;
75216;SDS011;63800;51.972;5.682;2023-08-06T01:42:39;9.57;;;7.63;;
75216;SDS011;63800;51.972;5.682;2023-08-06T01:45:08;11.18;;;7.90;;
75216;SDS011;63800;51.972;5.682;2023-08-06T01:47:34;10.88;;;8.48;;
75216;SDS011;63800;51.972;5.682;2023-08-06T01:50:00;11.43;;;8.45;;
75216;SDS011;63800;51.972;5.682;2023-08-06T01:52:26;13.23;;;9.55;;
75216;SDS011;63800;51.972;5.682;2023-08-06T01:54:52;12.80;;;8.32;;
75216;SDS011;63800;51.972;5.682;2023-08-06T01:57:17;12.68;;;8.98;;
75216;SDS011;63800;51.972;5.682;2023-08-06T01:59:43;12.82;;;8.75;;
75216;SDS011;63800;51.972;5.682;2023-08-06T02:02:08;13.10;;;9.35;;
75216;SDS011;63800;51.972;5.682;2023-08-06T02:04:34;10.93;;;8.35;;
75216;SDS011;63800;51.972;5.682;2023-08-06T02:06:59;12.45;;;8.82;;
75216;SDS011;63800;51.972;5.682;2023-08-06T02:09:25;12.65;;;8.77;;
75216;SDS011;63800;51.972;5.682;2023-08-06T02:11:50;10.07;;;7.68;;
75216;SDS011;63800;51.972;5.682;2023-08-06T02:14:16;10.63;;;8.65;;
75216;SDS011;63800;51.972;5.682;2023-08-06T02:16:41;13.05;;;8.70;;
75216;SDS011;63800;51.972;5.682;2023-08-06T02:19:07;12.32;;;9.00;;
75216;SDS011;63800;51.972;5.682;2023-08-06T02:21:32;11.65;;;7.95;;
75216;SDS011;63800;51.972;5.682;2023-08-06T02:23:58;11.38;;;7.97;;
75216;SDS011;63800;51.972;5.682;2023-08-06T02:26:24;11.02;;;8.20;;
75216;SDS011;63800;51.972;5.682;2023-08-06T02:28:49;11.18;;;8.43;;
75216;SDS011;63800;51.972;5.682;2023-08-06T02:31:14;9.68;;;7.35;;
75216;SDS011;63800;51.972;5.682;2023-08-06T02:33:40;10.75;;;7.50;;
75216;SDS011;63800;51.972;5.682;2023-08-06T02:36:05;10.98;;;7.65;;
75216;SDS011;63800;51.972;5.682;2023-08-06T02:38:31;11.05;;;8.00;;
75216;SDS011;63800;51.972;5.682;2023-08-06T02:40:57;12.05;;;8.63;;
75216;SDS011;63800;51.972;5.682;2023-08-06T02:43:22;11.15;;;8.07;;
75216;SDS011;63800;51.972;5.682;2023-08-06T02:45:48;11.00;;;8.10;;
75216;SDS011;63800;51.972;5.682;2023-08-06T02:48:13;12.25;;;8.52;;
75216;SDS011;63800;51.972;5.682;2023-08-06T02:50:39;10.43;;;7.88;;
75216;SDS011;63800;51.972;5.682;2023-08-06T02:53:06;10.27;;;8.10;;
75216;SDS011;63800;51.972;5.682;2023-08-06T02:55:33;11.45;;;8.25;;
75216;SDS011;63800;51.972;5.682;2023-08-06T02:57:59;12.85;;;8.00;;
75216;SDS011;63800;51.972;5.682;2023-08-06T03:00:25;10.32;;;7.72;;
75216;SDS011;63800;51.972;5.682;2023-08-06T03:02:50;12.50;;;7.85;;
75216;SDS011;63800;51.972;5.682;2023-08-06T03:05:16;11.60;;;7.88;;
75216;SDS011;63800;51.972;5.682;2023-08-06T03:07:41;9.73;;;7.45;;
75216;SDS011;63800;51.972;5.682;2023-08-06T03:10:07;10.05;;;7.53;;
75216;SDS011;63800;51.972;5.682;2023-08-06T03:12:32;12.05;;;8.38;;
75216;SDS011;63800;51.972;5.682;2023-08-06T03:14:58;11.20;;;8.40;;
75216;SDS011;63800;51.972;5.682;2023-08-06T03:17:23;10.38;;;7.78;;
75216;SDS011;63800;51.972;5.682;2023-08-06T03:19:48;11.45;;;7.95;;
75216;SDS011;63800;51.972;5.682;2023-08-06T03:22:14;11.15;;;8.48;;
75216;SDS011;63800;51.972;5.682;2023-08-06T03:24:39;11.73;;;7.95;;
75216;SDS011;63800;51.972;5.682;2023-08-06T03:27:05;11.90;;;7.85;;
75216;SDS011;63800;51.972;5.682;2023-08-06T03:29:30;12.27;;;8.43;;
75216;SDS011;63800;51.972;5.682;2023-08-06T03:31:56;10.73;;;7.80;;
75216;SDS011;63800;51.972;5.682;2023-08-06T03:34:21;10.32;;;8.30;;
75216;SDS011;63800;51.972;5.682;2023-08-06T03:36:47;9.43;;;7.88;;
75216;SDS011;63800;51.972;5.682;2023-08-06T03:39:12;11.35;;;8.55;;
75216;SDS011;63800;51.972;5.682;2023-08-06T03:41:39;10.27;;;8.15;;
75216;SDS011;63800;51.972;5.682;2023-08-06T03:44:04;11.23;;;9.18;;
75216;SDS011;63800;51.972;5.682;2023-08-06T03:46:30;10.57;;;7.80;;
75216;SDS011;63800;51.972;5.682;2023-08-06T03:48:59;11.40;;;8.40;;
75216;SDS011;63800;51.972;5.682;2023-08-06T03:51:25;13.13;;;9.32;;
75216;SDS011;63800;51.972;5.682;2023-08-06T03:53:50;11.80;;;8.73;;
75216;SDS011;63800;51.972;5.682;2023-08-06T03:56:16;13.35;;;8.88;;
75216;SDS011;63800;51.972;5.682;2023-08-06T03:58:41;11.90;;;8.70;;
75216;SDS011;63800;51.972;5.682;2023-08-06T04:01:06;12.82;;;8.80;;
75216;SDS011;63800;51.972;5.682;2023-08-06T04:03:32;13.38;;;9.07;;
75216;SDS011;63800;51.972;5.682;2023-08-06T04:05:57;10.93;;;8.52;;
75216;SDS011;63800;51.972;5.682;2023-08-06T04:08:23;12.65;;;8.77;;
75216;SDS011;63800;51.972;5.682;2023-08-06T04:10:52;10.68;;;8.70;;
75216;SDS011;63800;51.972;5.682;2023-08-06T04:13:18;11.43;;;8.80;;
75216;SDS011;63800;51.972;5.682;2023-08-06T04:15:43;11.98;;;9.23;;
75216;SDS011;63800;51.972;5.682;2023-08-06T04:18:09;12.68;;;8.38;;
75216;SDS011;63800;51.972;5.682;2023-08-06T04:20:34;11.43;;;8.27;;
75216;SDS011;63800;51.972;5.682;2023-08-06T04:23:07;12.88;;;8.85;;
75216;SDS011;63800;51.972;5.682;2023-08-06T04:25:32;10.27;;;8.30;;
75216;SDS011;63800;51.972;5.682;2023-08-06T04:27:57;11.70;;;8.55;;
75216;SDS011;63800;51.972;5.682;2023-08-06T04:30:23;11.57;;;8.45;;
75216;SDS011;63800;51.972;5.682;2023-08-06T04:32:49;10.77;;;8.60;;
75216;SDS011;63800;51.972;5.682;2023-08-06T04:35:15;11.30;;;8.50;;
75216;SDS011;63800;51.972;5.682;2023-08-06T04:37:40;11.23;;;8.73;;
75216;SDS011;63800;51.972;5.682;2023-08-06T04:40:06;11.00;;;8.75;;
75216;SDS011;63800;51.972;5.682;2023-08-06T04:42:32;11.68;;;8.77;;
75216;SDS011;63800;51.972;5.682;2023-08-06T04:44:57;11.40;;;8.95;;
75216;SDS011;63800;51.972;5.682;2023-08-06T04:47:23;11.52;;;8.15;;
75216;SDS011;63800;51.972;5.682;2023-08-06T04:49:50;11.25;;;9.05;;
75216;SDS011;63800;51.972;5.682;2023-08-06T04:52:16;11.00;;;8.32;;
75216;SDS011;63800;51.972;5.682;2023-08-06T04:54:41;12.00;;;9.30;;
75216;SDS011;63800;51.972;5.682;2023-08-06T04:57:08;12.13;;;9.68;;
75216;SDS011;63800;51.972;5.682;2023-08-06T04:59:33;12.10;;;9.20;;
75216;SDS011;63800;51.972;5.682;2023-08-06T05:01:59;13.18;;;9.50;;
75216;SDS011;63800;51.972;5.682;2023-08-06T05:04:24;12.93;;;9.07;;
75216;SDS011;63800;51.972;5.682;2023-08-06T05:06:50;11.57;;;9.20;;
75216;SDS011;63800;51.972;5.682;2023-08-06T05:09:15;12.32;;;9.07;;
75216;SDS011;63800;51.972;5.682;2023-08-06T05:11:40;12.27;;;8.70;;
75216;SDS011;63800;51.972;5.682;2023-08-06T05:14:06;11.00;;;8.43;;
75216;SDS011;63800;51.972;5.682;2023-08-06T05:16:31;12.05;;;8.48;;
75216;SDS011;63800;51.972;5.682;2023-08-06T05:18:57;11.10;;;8.15;;
75216;SDS011;63800;51.972;5.682;2023-08-06T05:21:22;9.50;;;8.13;;
75216;SDS011;63800;51.972;5.682;2023-08-06T05:23:48;12.48;;;8.80;;
75216;SDS011;63800;51.972;5.682;2023-08-06T05:26:13;10.27;;;7.90;;
75216;SDS011;63800;51.972;5.682;2023-08-06T05:28:41;11.07;;;8.25;;
75216;SDS011;63800;51.972;5.682;2023-08-06T05:31:06;10.20;;;8.10;;
75216;SDS011;63800;51.972;5.682;2023-08-06T05:33:32;10.88;;;7.18;;
75216;SDS011;63800;51.972;5.682;2023-08-06T05:35:57;9.60;;;7.57;;
75216;SDS011;63800;51.972;5.682;2023-08-06T05:38:22;10.07;;;7.40;;
75216;SDS011;63800;51.972;5.682;2023-08-06T05:40:48;9.63;;;7.82;;
75216;SDS011;63800;51.972;5.682;2023-08-06T05:43:14;9.93;;;6.90;;
75216;SDS011;63800;51.972;5.682;2023-08-06T05:45:39;11.50;;;8.40;;
75216;SDS011;63800;51.972;5.682;2023-08-06T05:48:09;10.88;;;8.02;;
75216;SDS011;63800;51.972;5.682;2023-08-06T05:50:34;11.85;;;7.75;;
75216;SDS011;63800;51.972;5.682;2023-08-06T05:53:00;15.73;;;9.18;;
75216;SDS011;63800;51.972;5.682;2023-08-06T05:55:25;13.43;;;9.35;;
75216;SDS011;63800;51.972;5.682;2023-08-06T05:57:51;12.27;;;8.38;;
75216;SDS011;63800;51.972;5.682;2023-08-06T06:00:17;12.88;;;9.18;;
75216;SDS011;63800;51.972;5.682;2023-08-06T06:02:43;12.25;;;9.50;;
75216;SDS011;63800;51.972;5.682;2023-08-06T06:05:09;12.20;;;9.63;;
75216;SDS011;63800;51.972;5.682;2023-08-06T06:07:34;12.07;;;9.07;;
75216;SDS011;63800;51.972;5.682;2023-08-06T06:10:00;12.35;;;8.90;;
75216;SDS011;63800;51.972;5.682;2023-08-06T06:12:25;12.13;;;8.48;;
75216;SDS011;63800;51.972;5.682;2023-08-06T06:14:51;13.55;;;9.43;;
75216;SDS011;63800;51.972;5.682;2023-08-06T06:17:16;13.82;;;9.50;;
75216;SDS011;63800;51.972;5.682;2023-08-06T06:19:42;13.77;;;9.45;;
75216;SDS011;63800;51.972;5.682;2023-08-06T06:22:07;13.07;;;10.00;;
75216;SDS011;63800;51.972;5.682;2023-08-06T06:24:33;14.65;;;10.35;;
75216;SDS011;63800;51.972;5.682;2023-08-06T06:26:58;14.07;;;10.27;;
75216;SDS011;63800;51.972;5.682;2023-08-06T06:29:24;12.80;;;10.38;;
75216;SDS011;63800;51.972;5.682;2023-08-06T06:31:49;15.15;;;10.15;;
75216;SDS011;63800;51.972;5.682;2023-08-06T06:34:15;14.77;;;10.93;;
75216;SDS011;63800;51.972;5.682;2023-08-06T06:36:40;16.05;;;11.75;;
75216;SDS011;63800;51.972;5.682;2023-08-06T06:39:05;16.40;;;11.93;;
75216;SDS011;63800;51.972;5.682;2023-08-06T06:41:31;16.80;;;12.32;;
75216;SDS011;63800;51.972;5.682;2023-08-06T06:43:58;19.00;;;12.23;;
75216;SDS011;63800;51.972;5.682;2023-08-06T06:46:23;18.45;;;12.45;;
75216;SDS011;63800;51.972;5.682;2023-08-06T06:48:49;18.58;;;12.27;;
75216;SDS011;63800;51.972;5.682;2023-08-06T06:51:14;19.30;;;13.10;;
75216;SDS011;63800;51.972;5.682;2023-08-06T06:53:40;16.13;;;11.93;;
75216;SDS011;63800;51.972;5.682;2023-08-06T06:56:05;17.45;;;12.45;;
75216;SDS011;63800;51.972;5.682;2023-08-06T06:58:31;18.77;;;12.48;;
75216;SDS011;63800;51.972;5.682;2023-08-06T07:00:57;16.23;;;11.70;;
75216;SDS011;63800;51.972;5.682;2023-08-06T07:03:23;17.58;;;12.57;;
75216;SDS011;63800;51.972;5.682;2023-08-06T07:05:49;21.30;;;13.48;;
75216;SDS011;63800;51.972;5.682;2023-08-06T07:08:15;18.83;;;13.65;;
75216;SDS011;63800;51.972;5.682;2023-08-06T07:10:40;20.27;;;13.50;;
75216;SDS011;63800;51.972;5.682;2023-08-06T07:13:07;18.83;;;13.00;;
75216;SDS011;63800;51.972;5.682;2023-08-06T07:15:32;18.92;;;12.85;;
75216;SDS011;63800;51.972;5.682;2023-08-06T07:17:58;19.10;;;12.95;;
75216;SDS011;63800;51.972;5.682;2023-08-06T07:20:23;20.73;;;13.40;;
75216;SDS011;63800;51.972;5.682;2023-08-06T07:22:49;19.63;;;13.98;;
75216;SDS011;63800;51.972;5.682;2023-08-06T07:25:15;20.63;;;14.40;;
75216;SDS011;63800;51.972;5.682;2023-08-06T07:27:41;21.67;;;15.13;;
75216;SDS011;63800;51.972;5.682;2023-08-06T07:30:07;23.15;;;14.27;;
75216;SDS011;63800;51.972;5.682;2023-08-06T07:32:33;22.88;;;15.40;;
75216;SDS011;63800;51.972;5.682;2023-08-06T07:34:58;20.75;;;14.65;;
75216;SDS011;63800;51.972;5.682;2023-08-06T07:37:26;21.33;;;14.57;;
75216;SDS011;63800;51.972;5.682;2023-08-06T07:39:55;22.55;;;15.63;;
75216;SDS011;63800;51.972;5.682;2023-08-06T07:42:21;25.02;;;15.57;;
75216;SDS011;63800;51.972;5.682;2023-08-06T07:44:51;22.88;;;15.18;;
75216;SDS011;63800;51.972;5.682;2023-08-06T07:47:17;21.13;;;15.63;;
75216;SDS011;63800;51.972;5.682;2023-08-06T07:49:43;23.95;;;15.85;;
75216;SDS011;63800;51.972;5.682;2023-08-06T07:52:09;21.67;;;15.38;;
75216;SDS011;63800;51.972;5.682;2023-08-06T07:54:34;21.42;;;14.75;;
75216;SDS011;63800;51.972;5.682;2023-08-06T07:57:00;20.92;;;15.18;;
75216;SDS011;63800;51.972;5.682;2023-08-06T07:59:25;23.50;;;16.45;;
75216;SDS011;63800;51.972;5.682;2023-08-06T08:01:51;24.05;;;15.85;;
75216;SDS011;63800;51.972;5.682;2023-08-06T08:04:16;23.67;;;15.20;;
75216;SDS011;63800;51.972;5.682;2023-08-06T08:06:41;23.00;;;15.55;;
75216;SDS011;63800;51.972;5.682;2023-08-06T08:09:07;25.13;;;16.02;;
75216;SDS011;63800;51.972;5.682;2023-08-06T08:11:32;19.13;;;14.05;;
75216;SDS011;63800;51.972;5.682;2023-08-06T08:13:58;22.05;;;15.30;;
75216;SDS011;63800;51.972;5.682;2023-08-06T08:16:23;18.70;;;13.25;;
75216;SDS011;63800;51.972;5.682;2023-08-06T08:18:49;19.20;;;13.80;;
75216;SDS011;63800;51.972;5.682;2023-08-06T08:21:14;20.38;;;13.30;;
75216;SDS011;63800;51.972;5.682;2023-08-06T08:23:39;21.05;;;13.73;;
75216;SDS011;63800;51.972;5.682;2023-08-06T08:26:07;21.73;;;14.70;;
75216;SDS011;63800;51.972;5.682;2023-08-06T08:28:32;19.83;;;13.27;;
75216;SDS011;63800;51.972;5.682;2023-08-06T08:30:58;17.50;;;12.15;;
75216;SDS011;63800;51.972;5.682;2023-08-06T08:33:23;15.52;;;11.45;;
75216;SDS011;63800;51.972;5.682;2023-08-06T08:35:49;13.48;;;10.43;;
75216;SDS011;63800;51.972;5.682;2023-08-06T08:38:14;14.02;;;10.38;;
75216;SDS011;63800;51.972;5.682;2023-08-06T08:40:41;12.43;;;9.95;;
75216;SDS011;63800;51.972;5.682;2023-08-06T08:43:14;13.43;;;9.90;;
75216;SDS011;63800;51.972;5.682;2023-08-06T08:45:40;13.65;;;9.55;;
75216;SDS011;63800;51.972;5.682;2023-08-06T08:48:08;12.50;;;8.80;;
75216;SDS011;63800;51.972;5.682;2023-08-06T08:50:36;12.50;;;9.45;;
75216;SDS011;63800;51.972;5.682;2023-08-06T08:53:01;12.52;;;8.80;;
75216;SDS011;63800;51.972;5.682;2023-08-06T08:55:28;10.23;;;8.10;;
75216;SDS011;63800;51.972;5.682;2023-08-06T08:57:53;11.63;;;7.75;;
75216;SDS011;63800;51.972;5.682;2023-08-06T09:00:19;5.18;;;4.13;;
75216;SDS011;63800;51.972;5.682;2023-08-06T09:02:44;2.70;;;2.20;;
75216;SDS011;63800;51.972;5.682;2023-08-06T09:05:11;1.95;;;1.40;;
75216;SDS011;63800;51.972;5.682;2023-08-06T09:07:42;1.30;;;1.20;;
75216;SDS011;63800;51.972;5.682;2023-08-06T09:10:11;1.67;;;1.58;;
75216;SDS011;63800;51.972;5.682;2023-08-06T09:12:38;1.50;;;1.40;;
75216;SDS011;63800;51.972;5.682;2023-08-06T09:15:05;2.63;;;1.50;;
75216;SDS011;63800;51.972;5.682;2023-08-06T09:17:31;1.30;;;1.20;;
75216;SDS011;63800;51.972;5.682;2023-08-06T09:19:57;2.63;;;1.90;;
75216;SDS011;63800;51.972;5.682;2023-08-06T09:22:22;2.10;;;1.90;;
75216;SDS011;63800;51.972;5.682;2023-08-06T09:24:48;2.03;;;1.90;;
75216;SDS011;63800;51.972;5.682;2023-08-06T09:27:14;2.47;;;1.90;;
75216;SDS011;63800;51.972;5.682;2023-08-06T09:29:40;2.33;;;1.85;;
75216;SDS011;63800;51.972;5.682;2023-08-06T09:32:07;1.83;;;1.60;;
75216;SDS011;63800;51.972;5.682;2023-08-06T09:34:32;2.00;;;1.75;;
75216;SDS011;63800;51.972;5.682;2023-08-06T09:36:58;3.60;;;1.80;;
75216;SDS011;63800;51.972;5.682;2023-08-06T09:39:27;2.03;;;1.67;;
75216;SDS011;63800;51.972;5.682;2023-08-06T09:41:58;2.22;;;1.85;;
75216;SDS011;63800;51.972;5.682;2023-08-06T09:44:24;2.13;;;1.92;;
75216;SDS011;63800;51.972;5.682;2023-08-06T09:46:55;3.95;;;2.47;;
75216;SDS011;63800;51.972;5.682;2023-08-06T09:51:53;5.07;;;2.90;;
75216;SDS011;63800;51.972;5.682;2023-08-06T09:54:23;4.50;;;3.70;;
75216;SDS011;63800;51.972;5.682;2023-08-06T09:56:49;4.20;;;3.65;;
75216;SDS011;63800;51.972;5.682;2023-08-06T09:59:15;6.78;;;3.92;;
75216;SDS011;63800;51.972;5.682;2023-08-06T10:01:42;8.45;;;4.90;;
75216;SDS011;63800;51.972;5.682;2023-08-06T10:04:08;5.93;;;4.13;;
75216;SDS011;63800;51.972;5.682;2023-08-06T10:06:36;5.60;;;4.15;;
75216;SDS011;63800;51.972;5.682;2023-08-06T10:09:02;6.57;;;4.18;;
75216;SDS011;63800;51.972;5.682;2023-08-06T10:11:32;6.63;;;4.18;;
75216;SDS011;63800;51.972;5.682;2023-08-06T10:14:00;5.80;;;4.22;;
75216;SDS011;63800;51.972;5.682;2023-08-06T10:16:39;6.25;;;4.20;;
75216;SDS011;63800;51.972;5.682;2023-08-06T10:19:05;5.30;;;4.40;;
75216;SDS011;63800;51.972;5.682;2023-08-06T10:21:34;4.88;;;4.20;;
75216;SDS011;63800;51.972;5.682;2023-08-06T10:23:59;4.82;;;4.32;;
75216;SDS011;63800;51.972;5.682;2023-08-06T10:26:29;6.53;;;4.22;;
75216;SDS011;63800;51.972;5.682;2023-08-06T10:28:55;7.00;;;4.43;;
75216;SDS011;63800;51.972;5.682;2023-08-06T10:31:52;6.35;;;4.55;;
75216;SDS011;63800;51.972;5.682;2023-08-06T10:34:22;7.00;;;4.88;;
75216;SDS011;63800;51.972;5.682;2023-08-06T10:36:48;8.45;;;5.10;;
75216;SDS011;63800;51.972;5.682;2023-08-06T10:39:14;6.03;;;5.07;;
75216;SDS011;63800;51.972;5.682;2023-08-06T10:41:41;7.60;;;5.07;;
75216;SDS011;63800;51.972;5.682;2023-08-06T10:44:08;8.13;;;5.65;;
75216;SDS011;63800;51.972;5.682;2023-08-06T10:46:34;7.80;;;5.55;;
75216;SDS011;63800;51.972;5.682;2023-08-06T10:49:00;8.20;;;5.90;;
75216;SDS011;63800;51.972;5.682;2023-08-06T10:51:26;7.07;;;5.65;;
75216;SDS011;63800;51.972;5.682;2023-08-06T10:53:52;7.05;;;5.82;;
75216;SDS011;63800;51.972;5.682;2023-08-06T10:56:22;8.77;;;6.10;;
75216;SDS011;63800;51.972;5.682;2023-08-06T10:58:49;8.18;;;6.15;;
75216;SDS011;63800;51.972;5.682;2023-08-06T11:01:15;9.05;;;6.72;;
75216;SDS011;63800;51.972;5.682;2023-08-06T11:03:41;9.13;;;6.25;;
75216;SDS011;63800;51.972;5.682;2023-08-06T11:06:08;9.82;;;6.90;;
75216;SDS011;63800;51.972;5.682;2023-08-06T11:08:35;8.90;;;7.22;;
75216;SDS011;63800;51.972;5.682;2023-08-06T11:11:08;9.20;;;6.32;;
75216;SDS011;63800;51.972;5.682;2023-08-06T11:13:47;9.70;;;6.63;;
75216;SDS011;63800;51.972;5.682;2023-08-06T11:16:14;10.27;;;7.28;;
75216;SDS011;63800;51.972;5.682;2023-08-06T11:18:40;9.38;;;6.80;;
75216;SDS011;63800;51.972;5.682;2023-08-06T11:21:09;9.43;;;7.45;;
75216;SDS011;63800;51.972;5.682;2023-08-06T11:23:36;10.27;;;7.10;;
75216;SDS011;63800;51.972;5.682;2023-08-06T11:26:02;10.23;;;6.75;;
75216;SDS011;63800;51.972;5.682;2023-08-06T11:28:28;9.43;;;6.80;;
75216;SDS011;63800;51.972;5.682;2023-08-06T11:30:54;8.32;;;6.00;;
75216;SDS011;63800;51.972;5.682;2023-08-06T11:33:22;8.68;;;6.35;;
75216;SDS011;63800;51.972;5.682;2023-08-06T11:35:50;9.65;;;5.55;;
75216;SDS011;63800;51.972;5.682;2023-08-06T11:38:17;9.80;;;5.53;;
75216;SDS011;63800;51.972;5.682;2023-08-06T11:40:46;7.88;;;5.15;;
75216;SDS011;63800;51.972;5.682;2023-08-06T11:43:12;7.68;;;5.78;;
75216;SDS011;63800;51.972;5.682;2023-08-06T11:45:38;7.25;;;5.22;;
75216;SDS011;63800;51.972;5.682;2023-08-06T11:48:04;7.22;;;5.43;;
75216;SDS011;63800;51.972;5.682;2023-08-06T11:50:30;9.70;;;4.80;;
75216;SDS011;63800;51.972;5.682;2023-08-06T11:52:56;7.43;;;5.00;;
75216;SDS011;63800;51.972;5.682;2023-08-06T11:55:24;6.90;;;4.45;;
75216;SDS011;63800;51.972;5.682;2023-08-06T11:57:50;7.85;;;5.05;;
75216;SDS011;63800;51.972;5.682;2023-08-06T12:00:16;6.97;;;4.53;;
75216;SDS011;63800;51.972;5.682;2023-08-06T12:02:47;6.20;;;4.40;;
75216;SDS011;63800;51.972;5.682;2023-08-06T12:05:17;7.72;;;4.85;;
75216;SDS011;63800;51.972;5.682;2023-08-06T12:07:46;6.75;;;4.40;;
75216;SDS011;63800;51.972;5.682;2023-08-06T12:10:13;7.13;;;4.55;;
75216;SDS011;63800;51.972;5.682;2023-08-06T12:12:39;6.65;;;5.05;;
75216;SDS011;63800;51.972;5.682;2023-08-06T12:15:06;6.55;;;5.00;;
75216;SDS011;63800;51.972;5.682;2023-08-06T12:17:32;7.53;;;5.15;;
75216;SDS011;63800;51.972;5.682;2023-08-06T12:19:58;7.60;;;5.00;;
75216;SDS011;63800;51.972;5.682;2023-08-06T12:22:23;9.65;;;5.53;;
75216;SDS011;63800;51.972;5.682;2023-08-06T12:24:49;7.03;;;4.78;;
75216;SDS011;63800;51.972;5.682;2023-08-06T12:27:15;6.88;;;4.68;;
75216;SDS011;63800;51.972;5.682;2023-08-06T12:29:44;6.22;;;4.18;;
75216;SDS011;63800;51.972;5.682;2023-08-06T12:32:13;8.40;;;4.70;;
75216;SDS011;63800;51.972;5.682;2023-08-06T12:34:39;5.97;;;4.22;;
75216;SDS011;63800;51.972;5.682;2023-08-06T12:37:06;4.93;;;3.92;;
75216;SDS011;63800;51.972;5.682;2023-08-06T12:39:34;6.43;;;3.80;;
75216;SDS011;63800;51.972;5.682;2023-08-06T12:42:01;4.70;;;3.85;;
75216;SDS011;63800;51.972;5.682;2023-08-06T12:44:27;5.72;;;3.97;;
75216;SDS011;63800;51.972;5.682;2023-08-06T12:46:53;6.53;;;3.58;;
75216;SDS011;63800;51.972;5.682;2023-08-06T12:49:19;4.30;;;3.33;;
75216;SDS011;63800;51.972;5.682;2023-08-06T12:51:50;6.38;;;3.60;;
75216;SDS011;63800;51.972;5.682;2023-08-06T12:54:17;4.22;;;3.55;;
75216;SDS011;63800;51.972;5.682;2023-08-06T12:56:43;3.88;;;2.95;;
75216;SDS011;63800;51.972;5.682;2023-08-06T12:59:09;5.03;;;3.20;;
75216;SDS011;63800;51.972;5.682;2023-08-06T13:01:36;3.90;;;2.80;;
75216;SDS011;63800;51.972;5.682;2023-08-06T13:04:02;3.97;;;2.70;;
75216;SDS011;63800;51.972;5.682;2023-08-06T13:06:28;2.63;;;2.40;;
75216;SDS011;63800;51.972;5.682;2023-08-06T13:08:54;6.35;;;2.80;;
75216;SDS011;63800;51.972;5.682;2023-08-06T13:11:19;4.68;;;3.17;;
75216;SDS011;63800;51.972;5.682;2023-08-06T13:13:45;5.28;;;3.88;;
75216;SDS011;63800;51.972;5.682;2023-08-06T13:16:10;3.95;;;2.88;;
75216;SDS011;63800;51.972;5.682;2023-08-06T13:18:36;4.43;;;3.00;;
75216;SDS011;63800;51.972;5.682;2023-08-06T13:21:01;6.88;;;3.40;;
75216;SDS011;63800;51.972;5.682;2023-08-06T13:23:26;4.57;;;3.40;;
75216;SDS011;63800;51.972;5.682;2023-08-06T13:25:52;4.38;;;3.03;;
75216;SDS011;63800;51.972;5.682;2023-08-06T13:28:18;3.90;;;2.95;;
75216;SDS011;63800;51.972;5.682;2023-08-06T13:30:44;4.93;;;2.60;;
75216;SDS011;63800;51.972;5.682;2023-08-06T13:33:09;3.90;;;2.60;;
75216;SDS011;63800;51.972;5.682;2023-08-06T13:35:35;4.32;;;3.13;;
75216;SDS011;63800;51.972;5.682;2023-08-06T13:38:00;4.68;;;3.20;;
75216;SDS011;63800;51.972;5.682;2023-08-06T13:40:29;4.93;;;3.03;;
75216;SDS011;63800;51.972;5.682;2023-08-06T13:42:57;4.35;;;2.90;;
75216;SDS011;63800;51.972;5.682;2023-08-06T13:45:22;3.80;;;2.80;;
75216;SDS011;63800;51.972;5.682;2023-08-06T13:47:48;4.18;;;3.20;;
75216;SDS011;63800;51.972;5.682;2023-08-06T13:50:13;6.15;;;3.13;;
75216;SDS011;63800;51.972;5.682;2023-08-06T13:52:39;5.50;;;3.45;;
75216;SDS011;63800;51.972;5.682;2023-08-06T13:55:04;6.07;;;3.30;;
75216;SDS011;63800;51.972;5.682;2023-08-06T13:57:31;4.10;;;2.83;;
75216;SDS011;63800;51.972;5.682;2023-08-06T13:59:56;3.67;;;3.15;;
75216;SDS011;63800;51.972;5.682;2023-08-06T14:02:22;4.45;;;3.10;;
75216;SDS011;63800;51.972;5.682;2023-08-06T14:04:48;6.28;;;3.90;;
75216;SDS011;63800;51.972;5.682;2023-08-06T14:07:13;4.18;;;3.25;;
75216;SDS011;63800;51.972;5.682;2023-08-06T14:09:39;4.50;;;2.85;;
75216;SDS011;63800;51.972;5.682;2023-08-06T14:12:05;5.45;;;3.58;;
75216;SDS011;63800;51.972;5.682;2023-08-06T14:14:31;3.95;;;3.35;;
75216;SDS011;63800;51.972;5.682;2023-08-06T14:16:57;4.53;;;3.47;;
75216;SDS011;63800;51.972;5.682;2023-08-06T14:19:22;5.65;;;3.40;;
75216;SDS011;63800;51.972;5.682;2023-08-06T14:21:48;5.05;;;2.97;;
75216;SDS011;63800;51.972;5.682;2023-08-06T14:24:14;6.22;;;3.30;;
75216;SDS011;63800;51.972;5.682;2023-08-06T14:26:40;5.43;;;3.03;;
75216;SDS011;63800;51.972;5.682;2023-08-06T14:29:05;4.93;;;3.10;;
75216;SDS011;63800;51.972;5.682;2023-08-06T14:31:31;3.53;;;2.80;;
75216;SDS011;63800;51.972;5.682;2023-08-06T14:33:57;4.72;;;2.58;;
75216;SDS011;63800;51.972;5.682;2023-08-06T14:36:22;5.38;;;2.97;;
75216;SDS011;63800;51.972;5.682;2023-08-06T14:38:47;5.97;;;2.83;;
75216;SDS011;63800;51.972;5.682;2023-08-06T14:41:13;5.85;;;3.03;;